Petersburg, AK

11:49 PM AKDT on April 29, 2017 (GMT -0800)
Johnson Petersburg | | Change Station

Elev 105 ft 56.80 °N, 132.95 °W | Updated 53 minutes ago

Overcast
Overcast
42 °F
Feels Like 40 °F
N
4
Wind Variable Wind from West

Today
High -- | Low -- °F
--% Chance of Precip.
Yesterday
High -- | Low -- °F
Precip. -- in
Pressure 29.78 in
Visibility 10.0 miles
Clouds Overcast 6000 ft
Windchill 40 °F
Dew Point 39 °F
Humidity 89%
Rainfall 0.00 in
Snow Depth Not available.
5:08 AM 8:31 PM
Waxing Crescent, 20% visible
METAR PAPG 300656Z AUTO 26003KT 10SM OVC060 06/04 A2976 RMK AO2 SLP083 T00560039 $
Pressure 29.78 in
Visibility 10.0 miles
Clouds Overcast 6000 ft
Windchill 40 °F
Dew Point 39 °F
Humidity 89%
Rainfall 0.00 in
Snow Depth Not available.
5:08 AM 8:31 PM
Waxing Crescent, 20% visible
METAR PAPG 300656Z AUTO 26003KT 10SM OVC060 06/04 A2976 RMK AO2 SLP083 T00560039 $

Get Severe Weather Alerts

Thanks for signing up!

Be on the lookout for a verification email in your inbox.

You'll start receiving the daily forecast at 8 AM.

×

10-Day Weather Forecast

Almanac

Astronomy

Apr. 29, 2017 Rise Set
Actual Time
Civil Twilight
Nautical Twilight
Astronomical Twilight
Moon
Length of Visible Light
Length of Day
Tomorrow will be .
, % of the Moon is Illuminated

Today's Extremes

State Highs State Lows

Community

WunderPhotos

WunderBlog® & News

Nearby

Air Quality

  Air Quality AQ Index Pollutant
Not available.

Snow Depth

Station Depth Elevation

Earthquake Activity

City Distance Mag. Time & Date
Minimum magnitude displayed is 2.5.

Coastal Water Temperatures

Place Temperature

Stations

Nearby Weather Stations

Station Location Temp. Windchill Dew Point Humidity Wind Precip. Elev Updated Type
                   

Watches & Warnings

There are currently no watches in effect.